createdAt,value
2018-08-22T00:00:32.656Z,76.48
2018-08-22T00:02:25.478Z,76.28
2018-08-22T00:03:25.455Z,77.59
2018-08-22T00:05:18.270Z,76.63
2018-08-22T00:06:18.223Z,77.31
2018-08-22T00:08:11.051Z,77.11
2018-08-22T00:09:11.014Z,77.21
2018-08-22T00:11:03.832Z,77.11
2018-08-22T00:12:03.800Z,77.01
2018-08-22T00:13:56.618Z,77.21
2018-08-22T00:14:56.583Z,77.88
2018-08-22T00:16:49.381Z,77.78
2018-08-22T00:17:49.348Z,78.46
2018-08-22T00:19:42.178Z,78.27
2018-08-22T00:20:42.145Z,78.27
2018-08-22T00:22:35.049Z,78.36
2018-08-22T00:23:34.915Z,78.27
2018-08-22T00:25:27.802Z,78.56
2018-08-22T00:26:27.702Z,78.85
2018-08-22T00:28:20.550Z,78.65
2018-08-22T00:29:20.593Z,78.75
2018-08-22T00:31:13.301Z,79.03
2018-08-22T00:32:13.266Z,78.75
2018-08-22T00:34:06.094Z,78.75
2018-08-22T00:35:06.050Z,79.10
2018-08-22T00:36:58.870Z,78.27
2018-08-22T00:37:58.833Z,78.46
2018-08-22T00:39:51.659Z,79.33
2018-08-22T00:40:51.613Z,78.36
2018-08-22T00:42:44.424Z,78.52
2018-08-22T00:43:44.405Z,78.36
2018-08-22T00:45:37.234Z,79.23
2018-08-22T00:46:37.186Z,79.28
2018-08-22T00:48:29.995Z,78.52
2018-08-22T00:49:29.966Z,78.61
2018-08-22T00:51:22.784Z,79.19
2018-08-22T00:52:22.741Z,79.19
2018-08-22T00:54:15.550Z,79.10
2018-08-22T00:55:15.530Z,79.00
2018-08-22T00:57:08.351Z,79.77
2018-08-22T00:58:08.314Z,79.58
2018-08-22T01:00:01.120Z,80.25
2018-08-22T01:01:01.089Z,80.25
2018-08-22T01:02:53.912Z,80.35
2018-08-22T01:03:53.866Z,80.06
2018-08-22T01:05:46.692Z,80.25
2018-08-22T01:06:46.651Z,80.15
2018-08-22T01:08:39.488Z,80.54
2018-08-22T01:09:39.439Z,80.54
2018-08-22T01:11:32.268Z,80.63
2018-08-22T01:12:32.214Z,80.54
2018-08-22T01:14:25.033Z,80.63
2018-08-22T01:15:25.002Z,80.54
2018-08-22T01:17:17.825Z,80.63
2018-08-22T01:18:17.780Z,80.54
2018-08-22T01:20:10.596Z,80.73
2018-08-22T01:21:10.566Z,80.63
2018-08-22T01:23:03.401Z,80.92
2018-08-22T01:24:03.351Z,80.63
2018-08-22T01:25:56.160Z,80.92
2018-08-22T01:26:56.127Z,80.73
2018-08-22T01:28:48.951Z,80.63
2018-08-22T01:29:48.912Z,80.83
2018-08-22T01:31:41.718Z,81.02
2018-08-22T01:32:41.691Z,80.83
2018-08-22T01:34:34.523Z,80.63
2018-08-22T01:35:34.478Z,80.73
2018-08-22T01:37:27.313Z,80.35
2018-08-22T01:38:27.267Z,80.73
2018-08-22T01:40:20.078Z,80.83
2018-08-22T01:41:20.058Z,80.73
2018-08-22T01:43:12.875Z,81.21
2018-08-22T01:44:12.830Z,81.21
2018-08-22T01:46:05.637Z,80.92
2018-08-22T01:47:05.604Z,81.02
2018-08-22T01:48:58.442Z,81.02
2018-08-22T01:49:58.384Z,80.92
2018-08-22T01:51:51.199Z,81.02
2018-08-22T01:52:51.168Z,81.02
2018-08-22T01:54:44.011Z,80.83
2018-08-22T01:55:43.942Z,80.92
2018-08-22T01:57:36.764Z,80.73
2018-08-22T01:58:36.736Z,80.73
2018-08-22T02:00:29.547Z,80.92
2018-08-22T02:01:29.523Z,81.50
2018-08-22T02:03:22.336Z,81.12
2018-08-22T02:04:22.293Z,81.21
2018-08-22T02:06:15.127Z,80.92
2018-08-22T02:07:15.088Z,81.21
2018-08-22T02:09:07.907Z,81.50
2018-08-22T02:10:07.864Z,81.02
2018-08-22T02:12:00.678Z,81.12
2018-08-22T02:13:00.640Z,81.02
2018-08-22T02:14:53.493Z,81.30
2018-08-22T02:15:53.428Z,81.21
2018-08-22T02:17:46.238Z,81.98
2018-08-22T02:18:46.207Z,82.17
2018-08-22T02:20:39.038Z,81.79
2018-08-22T02:21:38.988Z,82.08
2018-08-22T02:23:31.804Z,82.27
2018-08-22T02:24:31.794Z,82.08
2018-08-22T02:26:24.609Z,82.14
2018-08-22T02:27:24.551Z,81.94
2018-08-22T02:29:17.363Z,82.81
2018-08-22T02:30:17.340Z,82.71
2018-08-22T02:32:10.174Z,82.61
2018-08-22T02:33:10.119Z,82.71
2018-08-22T02:35:02.935Z,83.29
2018-08-22T02:36:02.893Z,83.39
2018-08-22T02:37:55.711Z,83.58
2018-08-22T02:38:55.683Z,83.48
2018-08-22T02:40:48.498Z,83.19
2018-08-22T02:41:48.455Z,83.29
2018-08-22T02:43:41.289Z,83.92
2018-08-22T02:44:41.230Z,83.92
2018-08-22T02:46:34.065Z,83.73
2018-08-22T02:47:34.018Z,83.63
2018-08-22T02:49:26.820Z,84.11
2018-08-22T02:50:26.799Z,84.59
2018-08-22T02:52:19.622Z,84.59
2018-08-22T02:53:19.573Z,84.88
2018-08-22T02:55:12.410Z,84.88
2018-08-22T02:56:12.351Z,84.40
2018-08-22T02:58:05.161Z,85.46
2018-08-22T02:59:05.124Z,85.36
2018-08-22T03:00:57.953Z,85.75
2018-08-22T03:01:57.914Z,85.61
2018-08-22T03:03:50.721Z,85.65
2018-08-22T03:04:50.694Z,85.65
2018-08-22T03:06:43.514Z,85.46
2018-08-22T03:07:43.470Z,85.75
2018-08-22T03:09:36.279Z,85.61
2018-08-22T03:10:36.249Z,85.51
2018-08-22T03:12:29.070Z,86.18
2018-08-22T03:13:29.024Z,85.99
2018-08-22T03:15:21.833Z,85.99
2018-08-22T03:16:21.799Z,86.66
2018-08-22T03:18:14.627Z,85.71
2018-08-22T03:19:14.587Z,85.99
2018-08-22T03:21:07.394Z,85.99
2018-08-22T03:22:07.361Z,86.38
2018-08-22T03:24:00.193Z,85.99
2018-08-22T03:25:00.145Z,86.22
2018-08-22T03:26:52.961Z,86.47
2018-08-22T03:27:52.920Z,85.99
2018-08-22T03:29:45.750Z,86.57
2018-08-22T03:30:45.701Z,86.47
2018-08-22T03:32:38.537Z,86.38
2018-08-22T03:33:38.490Z,86.85
2018-08-22T03:35:31.321Z,86.47
2018-08-22T03:36:31.282Z,87.24
2018-08-22T03:38:24.097Z,87.43
2018-08-22T03:39:24.045Z,86.95
2018-08-22T03:41:16.893Z,87.24
2018-08-22T03:42:16.837Z,86.95
2018-08-22T03:44:09.650Z,86.85
2018-08-22T03:45:09.611Z,86.85
2018-08-22T03:47:02.438Z,87.05
2018-08-22T03:48:02.409Z,87.34
2018-08-22T03:49:55.220Z,86.85
2018-08-22T03:50:55.167Z,87.62
2018-08-22T03:52:48.001Z,87.43
2018-08-22T03:53:47.963Z,87.62
2018-08-22T03:55:41.288Z,87.39
2018-08-22T03:56:41.247Z,87.34
2018-08-22T03:58:34.053Z,87.62
2018-08-22T03:59:34.024Z,87.43
2018-08-22T04:01:26.842Z,88.10
2018-08-22T04:02:26.803Z,87.87
2018-08-22T04:04:19.634Z,87.87
2018-08-22T04:05:19.573Z,87.58
2018-08-22T04:07:12.391Z,87.82
2018-08-22T04:08:12.353Z,87.87
2018-08-22T04:10:05.180Z,87.43
2018-08-22T04:11:05.134Z,87.68
2018-08-22T04:12:57.959Z,88.16
2018-08-22T04:13:57.918Z,87.49
2018-08-22T04:15:50.754Z,88.35
2018-08-22T04:16:50.697Z,88.54
2018-08-22T04:18:44.002Z,88.16
2018-08-22T04:19:43.974Z,88.45
2018-08-22T04:21:36.794Z,88.35
2018-08-22T04:22:36.747Z,87.96
2018-08-22T04:24:29.583Z,88.35
2018-08-22T04:25:29.537Z,88.35
2018-08-22T04:27:22.359Z,88.16
2018-08-22T04:28:22.307Z,87.87
2018-08-22T04:30:15.124Z,88.35
2018-08-22T04:31:15.083Z,88.54
2018-08-22T04:33:07.891Z,88.54
2018-08-22T04:34:07.860Z,88.73
2018-08-22T04:36:00.680Z,89.02
2018-08-22T04:37:00.639Z,89.02
2018-08-22T04:38:53.446Z,89.02
2018-08-22T04:39:53.413Z,89.12
2018-08-22T04:41:46.246Z,89.31
2018-08-22T04:42:46.193Z,89.31
2018-08-22T04:44:39.008Z,89.50
2018-08-22T04:45:38.974Z,89.60
2018-08-22T04:47:32.295Z,89.89
2018-08-22T04:48:32.250Z,89.60
2018-08-22T04:50:25.080Z,89.98
2018-08-22T04:51:25.037Z,89.79
2018-08-22T04:53:17.858Z,89.89
2018-08-22T04:54:17.815Z,89.50
2018-08-22T04:56:11.166Z,89.79
2018-08-22T04:57:11.105Z,89.79
2018-08-22T04:59:03.925Z,89.69
2018-08-22T05:00:03.895Z,89.69
2018-08-22T05:01:56.723Z,90.37
2018-08-22T05:02:56.667Z,90.08
2018-08-22T05:04:49.474Z,89.98
2018-08-22T05:05:49.436Z,90.08
2018-08-22T05:07:42.265Z,90.27
2018-08-22T05:08:42.216Z,90.46
2018-08-22T05:10:35.048Z,90.37
2018-08-22T05:11:35.000Z,90.75
2018-08-22T05:13:27.824Z,90.56
2018-08-22T05:14:27.783Z,90.46
2018-08-22T05:16:20.615Z,90.17
2018-08-22T05:17:20.561Z,90.17
2018-08-22T05:19:13.377Z,90.37
2018-08-22T05:20:13.350Z,90.27
2018-08-22T05:22:06.176Z,90.66
2018-08-22T05:23:06.112Z,90.27
2018-08-22T05:24:58.936Z,90.46
2018-08-22T05:25:58.896Z,90.46
2018-08-22T05:27:51.732Z,89.84
2018-08-22T05:28:51.675Z,90.22
2018-08-22T05:30:44.487Z,90.32
2018-08-22T05:31:44.456Z,89.94
2018-08-22T05:33:37.286Z,90.32
2018-08-22T05:34:37.230Z,89.98
2018-08-22T05:36:30.046Z,89.79
2018-08-22T05:37:30.017Z,89.40
2018-08-22T05:39:22.837Z,90.27
2018-08-22T05:40:22.797Z,90.32
2018-08-22T05:42:15.612Z,90.46
2018-08-22T05:43:15.567Z,90.52
2018-08-22T05:45:08.395Z,90.27
2018-08-22T05:46:08.342Z,90.37
2018-08-22T05:48:01.190Z,90.27
2018-08-22T05:49:01.170Z,90.75
2018-08-22T05:50:53.953Z,90.94
2018-08-22T05:51:53.916Z,90.75
2018-08-22T05:53:46.735Z,90.46
2018-08-22T05:54:46.687Z,90.37
2018-08-22T05:56:39.505Z,90.46
2018-08-22T05:57:39.537Z,90.75
2018-08-22T05:59:32.297Z,90.66
2018-08-22T06:00:32.249Z,90.37
2018-08-22T06:02:25.054Z,90.84
2018-08-22T06:03:25.076Z,91.33
2018-08-22T06:05:17.858Z,91.33
2018-08-22T06:06:17.807Z,91.13
2018-08-22T06:08:10.631Z,90.94
2018-08-22T06:09:10.597Z,91.13
2018-08-22T06:11:03.417Z,91.18
2018-08-22T06:12:03.363Z,91.08
2018-08-22T06:13:56.164Z,91.37
2018-08-22T06:14:56.142Z,91.08
2018-08-22T06:16:48.963Z,91.37
2018-08-22T06:17:48.925Z,91.28
2018-08-22T06:19:41.748Z,91.18
2018-08-22T06:20:41.704Z,91.37
2018-08-22T06:22:34.513Z,90.75
2018-08-22T06:23:34.489Z,90.99
2018-08-22T06:25:27.321Z,90.89
2018-08-22T06:26:27.263Z,91.03
2018-08-22T06:28:20.069Z,90.17
2018-08-22T06:29:20.040Z,90.17
2018-08-22T06:31:12.863Z,90.45
2018-08-22T06:32:12.822Z,89.78
2018-08-22T06:34:05.628Z,89.88
2018-08-22T06:35:05.599Z,90.07
2018-08-22T06:36:58.438Z,89.11
2018-08-22T06:37:58.374Z,89.21
2018-08-22T06:39:51.189Z,88.67
2018-08-22T06:40:51.151Z,89.15
2018-08-22T06:42:43.985Z,89.06
2018-08-22T06:43:43.941Z,89.06
2018-08-22T06:45:36.764Z,88.77
2018-08-22T06:46:36.734Z,88.67
2018-08-22T06:48:29.544Z,88.33
2018-08-22T06:49:29.512Z,88.14
2018-08-22T06:51:22.320Z,87.85
2018-08-22T06:52:22.291Z,88.33
2018-08-22T06:54:15.121Z,87.95
2018-08-22T06:55:15.079Z,86.99
2018-08-22T06:57:07.948Z,87.08
2018-08-22T06:58:07.860Z,86.55
2018-08-22T07:00:00.670Z,85.97
2018-08-22T07:01:00.717Z,86.26
2018-08-22T07:02:53.465Z,86.16
2018-08-22T07:03:53.424Z,86.26
2018-08-22T07:05:46.251Z,85.78
2018-08-22T07:06:46.204Z,86.35
2018-08-22T07:08:39.032Z,86.40
2018-08-22T07:09:38.989Z,86.21
2018-08-22T07:11:31.810Z,85.72
2018-08-22T07:12:31.775Z,85.82
2018-08-22T07:14:24.595Z,85.43
2018-08-22T07:15:24.564Z,85.43
2018-08-22T07:17:17.365Z,84.95
2018-08-22T07:18:17.331Z,84.86
2018-08-22T07:20:10.172Z,85.24
2018-08-22T07:21:10.131Z,85.05
2018-08-22T07:23:02.962Z,84.99
2018-08-22T07:24:02.906Z,84.70
2018-08-22T07:25:55.721Z,84.70
2018-08-22T07:26:55.687Z,85.09
2018-08-22T07:28:48.532Z,84.42
2018-08-22T07:29:48.477Z,84.80
2018-08-22T07:31:41.285Z,84.70
2018-08-22T07:32:41.265Z,84.90
2018-08-22T07:34:34.095Z,84.94
2018-08-22T07:35:34.045Z,84.46
2018-08-22T07:37:26.857Z,84.17
2018-08-22T07:38:26.824Z,83.88
2018-08-22T07:40:19.650Z,83.69
2018-08-22T07:41:19.602Z,83.78
2018-08-22T07:43:12.435Z,83.53
2018-08-22T07:44:12.392Z,83.20
2018-08-22T07:46:05.222Z,82.28
2018-08-22T07:47:05.189Z,82.09
2018-08-22T07:48:57.996Z,81.99
2018-08-22T07:49:57.953Z,81.99
2018-08-22T07:51:50.786Z,81.99
2018-08-22T07:52:50.741Z,81.12
2018-08-22T07:54:43.556Z,81.41
2018-08-22T07:55:43.535Z,81.22
2018-08-22T07:57:36.362Z,80.97
2018-08-22T07:58:36.321Z,81.26
2018-08-22T08:00:29.141Z,81.26
2018-08-22T08:01:29.094Z,80.30
2018-08-22T08:03:21.924Z,80.00
2018-08-22T08:04:21.888Z,79.81
2018-08-22T08:06:14.713Z,79.56
2018-08-22T08:07:14.673Z,79.85
2018-08-22T08:09:07.490Z,78.99
2018-08-22T08:10:07.453Z,78.50
2018-08-22T08:12:00.288Z,78.59
2018-08-22T08:13:00.237Z,77.44
2018-08-22T08:14:53.052Z,77.83
2018-08-22T08:15:53.033Z,76.67
2018-08-22T08:17:45.847Z,75.84
2018-08-22T08:18:45.809Z,75.26
2018-08-22T08:20:39.132Z,74.96
2018-08-22T08:21:39.092Z,75.16
2018-08-22T08:23:31.973Z,75.26
2018-08-22T08:24:31.886Z,75.16
2018-08-22T08:26:24.712Z,75.84
2018-08-22T08:27:24.699Z,75.26
2018-08-22T08:29:17.562Z,74.58
2018-08-22T08:30:17.527Z,74.62
2018-08-22T08:32:10.345Z,74.62
2018-08-22T08:33:10.312Z,74.23
2018-08-22T08:35:03.154Z,73.55
2018-08-22T08:36:03.145Z,73.65
2018-08-22T08:37:55.934Z,72.58
2018-08-22T08:38:55.883Z,72.10
2018-08-22T08:40:48.699Z,72.62
2018-08-22T08:41:48.789Z,72.91
2018-08-22T08:43:41.497Z,73.49
2018-08-22T08:44:41.452Z,72.14
2018-08-22T08:46:34.293Z,70.98
2018-08-22T08:47:34.263Z,71.26
2018-08-22T08:49:27.107Z,70.68
2018-08-22T08:50:27.043Z,70.50
2018-08-22T08:52:20.435Z,70.53
2018-08-22T08:53:20.319Z,70.14
2018-08-22T08:55:13.654Z,71.01
2018-08-22T08:56:13.611Z,71.01
2018-08-22T08:58:06.429Z,70.92
2018-08-22T08:59:06.389Z,70.14
2018-08-22T09:00:59.225Z,70.37
2018-08-22T09:01:59.184Z,70.66
2018-08-22T09:03:52.547Z,69.98
2018-08-22T09:04:52.474Z,69.31
2018-08-22T09:06:45.791Z,69.89
2018-08-22T09:07:45.796Z,69.40
2018-08-22T09:09:38.594Z,68.91
2018-08-22T09:10:38.611Z,68.56
2018-08-22T09:12:31.356Z,68.08
2018-08-22T09:13:31.330Z,67.98
2018-08-22T09:15:24.178Z,67.88
2018-08-22T09:16:24.128Z,67.21
2018-08-22T09:18:16.934Z,67.11
2018-08-22T09:19:16.930Z,67.40
2018-08-22T09:21:09.773Z,67.34
2018-08-22T09:22:09.715Z,66.66
2018-08-22T09:24:02.598Z,66.56
2018-08-22T09:25:02.505Z,66.17
2018-08-22T09:26:55.331Z,65.98
2018-08-22T09:27:55.295Z,66.37
2018-08-22T09:29:48.134Z,66.17
2018-08-22T09:30:48.084Z,65.98
2018-08-22T09:32:40.900Z,64.53
2018-08-22T09:33:40.882Z,64.85
2018-08-22T09:35:33.753Z,64.27
2018-08-22T09:36:33.667Z,64.37
2018-08-22T09:38:26.986Z,64.27
2018-08-22T09:39:26.992Z,63.69
2018-08-22T09:41:20.305Z,63.40
2018-08-22T09:42:20.241Z,63.30
2018-08-22T09:44:13.100Z,63.13
2018-08-22T09:45:13.057Z,62.07
2018-08-22T09:47:05.891Z,61.68
2018-08-22T09:48:05.851Z,61.29
2018-08-22T09:49:58.687Z,60.42
2018-08-22T09:50:58.667Z,60.35
2018-08-22T09:52:51.475Z,59.94
2018-08-22T09:53:51.436Z,60.25
2018-08-22T09:55:44.285Z,60.06
2018-08-22T09:56:44.221Z,59.77
2018-08-22T09:58:37.137Z,58.93
2018-08-22T09:59:37.007Z,57.67
2018-08-22T10:01:29.857Z,56.82
2018-08-22T10:02:29.814Z,56.85
2018-08-22T10:04:22.632Z,55.44
2018-08-22T10:05:22.612Z,53.14
2018-08-22T10:07:15.454Z,50.95
2018-08-22T10:08:15.407Z,50.48
2018-08-22T10:10:08.248Z,48.88
2018-08-22T10:11:08.226Z,48.10
2018-08-22T10:13:01.088Z,46.68
2018-08-22T10:14:01.022Z,45.41
2018-08-22T10:15:53.859Z,45.23
2018-08-22T10:16:53.855Z,44.18
2018-08-22T10:18:46.715Z,43.81
2018-08-22T10:19:46.735Z,43.20
2018-08-22T10:21:39.496Z,43.71
2018-08-22T10:22:39.463Z,43.34
2018-08-22T10:24:32.290Z,41.03
2018-08-22T10:25:32.268Z,40.37
2018-08-22T10:27:25.221Z,39.70
2018-08-22T10:28:25.088Z,38.72
2018-08-22T10:30:17.924Z,37.74
2018-08-22T10:31:17.912Z,37.94
2018-08-22T10:33:10.763Z,38.33
2018-08-22T10:34:10.718Z,37.76
2018-08-22T10:36:03.558Z,37.48
2018-08-22T10:37:03.540Z,36.30
2018-08-22T10:38:56.387Z,36.99
2018-08-22T10:39:56.354Z,36.70
2018-08-22T10:41:49.200Z,36.13
2018-08-22T10:42:49.172Z,36.13
2018-08-22T10:44:42.055Z,35.74
2018-08-22T10:45:42.010Z,35.83
2018-08-22T10:47:34.868Z,35.62
2018-08-22T10:48:34.834Z,35.72
2018-08-22T10:50:27.705Z,34.69
2018-08-22T10:51:27.654Z,33.91
2018-08-22T10:53:20.520Z,33.72
2018-08-22T10:54:20.485Z,33.62
2018-08-22T10:56:13.328Z,33.70
2018-08-22T10:57:13.305Z,33.33
2018-08-22T10:59:06.159Z,32.74
2018-08-22T11:00:06.129Z,33.03
2018-08-22T11:01:58.977Z,31.87
2018-08-22T11:02:58.949Z,32.46
2018-08-22T11:04:51.804Z,31.97
2018-08-22T11:05:51.764Z,32.76
2018-08-22T11:07:44.613Z,32.36
2018-08-22T11:08:44.578Z,31.77
2018-08-22T11:10:37.438Z,32.17
2018-08-22T11:11:37.405Z,32.17
2018-08-22T11:13:30.272Z,32.86
2018-08-22T11:14:30.236Z,32.18
2018-08-22T11:16:23.587Z,32.28
2018-08-22T11:17:23.565Z,31.80
2018-08-22T11:19:16.401Z,30.91
2018-08-22T11:20:16.392Z,31.49
2018-08-22T11:22:09.721Z,31.11
2018-08-22T11:23:09.705Z,30.91
2018-08-22T11:25:02.551Z,30.04
2018-08-22T11:26:02.519Z,30.15
2018-08-22T11:27:55.864Z,30.17
2018-08-22T11:28:55.871Z,29.57
2018-08-22T11:30:49.204Z,29.76
2018-08-22T11:31:49.158Z,29.96
2018-08-22T11:33:42.497Z,29.57
2018-08-22T11:34:42.487Z,29.78
2018-08-22T11:36:35.327Z,29.57
2018-08-22T11:37:35.296Z,29.86
2018-08-22T11:39:28.156Z,30.41
2018-08-22T11:40:28.122Z,30.31
2018-08-22T11:42:21.489Z,30.62
2018-08-22T11:43:21.467Z,30.52
2018-08-22T11:45:14.305Z,29.93
2018-08-22T11:46:14.261Z,29.94
2018-08-22T11:48:07.597Z,29.86
2018-08-22T11:49:07.616Z,29.85
2018-08-22T11:51:00.932Z,30.62
2018-08-22T11:52:00.900Z,30.32
2018-08-22T11:53:54.236Z,29.86
2018-08-22T11:54:54.241Z,29.17
2018-08-22T11:56:47.066Z,29.27
2018-08-22T11:57:47.063Z,29.78
2018-08-22T11:59:39.871Z,29.57
2018-08-22T12:00:39.848Z,29.93
2018-08-22T12:02:32.711Z,29.75
2018-08-22T12:03:32.677Z,29.35
2018-08-22T12:05:26.014Z,29.46
2018-08-22T12:06:25.982Z,30.71
2018-08-22T12:08:19.337Z,31.20
2018-08-22T12:09:19.315Z,31.11
2018-08-22T12:11:12.151Z,31.11
2018-08-22T12:12:12.132Z,31.52
2018-08-22T12:14:05.483Z,30.93
2018-08-22T12:15:05.447Z,31.79
2018-08-22T12:16:58.293Z,31.80
2018-08-22T12:17:58.253Z,31.29
2018-08-22T12:19:51.594Z,30.82
2018-08-22T12:20:51.567Z,30.43
2018-08-22T12:22:44.917Z,30.65
2018-08-22T12:23:44.909Z,30.83
2018-08-22T12:25:37.722Z,30.82
2018-08-22T12:26:37.708Z,31.01
2018-08-22T12:28:30.579Z,30.63
2018-08-22T12:29:30.513Z,30.73
2018-08-22T12:31:23.868Z,30.62
2018-08-22T12:32:23.848Z,31.31
2018-08-22T12:34:16.712Z,30.60
2018-08-22T12:35:16.675Z,31.41
2018-08-22T12:37:10.014Z,30.62
2018-08-22T12:38:09.992Z,30.72
2018-08-22T12:40:03.340Z,31.21
2018-08-22T12:41:03.309Z,30.83
2018-08-22T12:42:56.644Z,31.10
2018-08-22T12:43:56.616Z,31.60
2018-08-22T12:45:49.475Z,31.03
2018-08-22T12:46:49.444Z,30.93
2018-08-22T12:48:42.792Z,30.52
2018-08-22T12:49:42.744Z,32.05
2018-08-22T12:51:35.580Z,32.45
2018-08-22T12:52:35.567Z,32.08
2018-08-22T12:54:28.906Z,31.77
2018-08-22T12:55:28.874Z,31.98
2018-08-22T12:57:21.711Z,31.60
2018-08-22T12:58:21.691Z,31.70
2018-08-22T13:00:14.554Z,31.31
2018-08-22T13:01:14.521Z,30.91
2018-08-22T13:03:07.836Z,30.93
2018-08-22T13:04:07.828Z,31.03
2018-08-22T13:06:01.251Z,31.01
2018-08-22T13:07:01.134Z,30.91
2018-08-22T13:08:53.976Z,31.03
2018-08-22T13:09:53.951Z,31.82
2018-08-22T13:11:46.795Z,30.83
2018-08-22T13:12:46.765Z,30.93
2018-08-22T13:14:40.134Z,30.73
2018-08-22T13:15:40.085Z,29.86
2018-08-22T13:17:32.929Z,29.96
2018-08-22T13:18:32.909Z,30.35
2018-08-22T13:20:25.751Z,31.03
2018-08-22T13:21:25.719Z,31.29
2018-08-22T13:23:18.580Z,31.98
2018-08-22T13:24:18.540Z,31.11
2018-08-22T13:26:11.385Z,31.97
2018-08-22T13:27:11.350Z,32.07
2018-08-22T13:29:04.194Z,34.18
2018-08-22T13:30:04.186Z,33.69
2018-08-22T13:31:57.021Z,33.51
2018-08-22T13:32:57.019Z,33.53
2018-08-22T13:34:50.342Z,32.93
2018-08-22T13:35:50.309Z,33.41
2018-08-22T13:37:43.141Z,34.75
2018-08-22T13:38:43.129Z,34.67
2018-08-22T13:40:36.486Z,34.06
2018-08-22T13:41:36.456Z,34.66
2018-08-22T13:43:29.301Z,34.38
2018-08-22T13:44:29.260Z,33.69
2018-08-22T13:46:22.144Z,33.53
2018-08-22T13:47:22.085Z,33.51
2018-08-22T13:49:15.413Z,33.80
2018-08-22T13:50:15.388Z,33.62
2018-08-22T13:52:08.737Z,32.56
2018-08-22T13:53:08.719Z,32.76
2018-08-22T13:55:01.560Z,33.33
2018-08-22T13:56:01.564Z,34.20
2018-08-22T13:57:54.380Z,33.74
2018-08-22T13:58:54.338Z,33.39
2018-08-22T14:00:47.182Z,33.70
2018-08-22T14:01:47.179Z,33.91
2018-08-22T14:03:40.017Z,33.23
2018-08-22T14:04:39.975Z,33.53
2018-08-22T14:06:32.826Z,33.33
2018-08-22T14:07:32.778Z,33.61
2018-08-22T14:09:25.618Z,35.05
2018-08-22T14:10:25.600Z,34.77
2018-08-22T14:12:18.953Z,34.49
2018-08-22T14:13:18.920Z,33.98
2018-08-22T14:15:12.249Z,34.75
2018-08-22T14:16:12.270Z,34.97
2018-08-22T14:18:05.563Z,34.99
2018-08-22T14:19:05.533Z,34.61
2018-08-22T14:20:59.861Z,34.51
2018-08-22T14:21:59.868Z,33.74
2018-08-22T14:23:53.172Z,33.34
2018-08-22T14:24:53.140Z,33.54
2018-08-22T14:26:45.977Z,33.82
2018-08-22T14:27:45.954Z,33.72
2018-08-22T14:29:38.792Z,34.69
2018-08-22T14:30:38.763Z,34.61
2018-08-22T14:32:31.634Z,34.47
2018-08-22T14:33:31.643Z,34.85
2018-08-22T14:35:24.428Z,36.03
2018-08-22T14:36:24.405Z,35.83
2018-08-22T14:38:17.753Z,35.64
2018-08-22T14:39:17.749Z,35.85
2018-08-22T14:41:10.604Z,35.64
2018-08-22T14:42:10.589Z,35.06
2018-08-22T14:44:03.943Z,36.21
2018-08-22T14:45:03.954Z,36.09
2018-08-22T14:46:57.223Z,36.58
2018-08-22T14:47:57.200Z,36.49
2018-08-22T14:49:50.045Z,36.11
2018-08-22T14:50:50.009Z,35.83
2018-08-22T14:52:42.857Z,36.13
2018-08-22T14:53:42.818Z,36.51
2018-08-22T14:55:35.695Z,37.54
2018-08-22T14:56:35.716Z,37.84
2018-08-22T14:58:29.006Z,37.35
2018-08-22T14:59:28.952Z,37.48
2018-08-22T15:01:21.795Z,36.52
2018-08-22T15:02:21.812Z,36.32
2018-08-22T15:04:14.675Z,35.93
2018-08-22T15:05:14.680Z,36.52
2018-08-22T15:07:07.443Z,36.88
2018-08-22T15:08:07.422Z,37.37
2018-08-22T15:10:00.772Z,36.99
2018-08-22T15:11:00.743Z,37.46
2018-08-22T15:12:54.097Z,37.54
2018-08-22T15:13:54.039Z,38.02
2018-08-22T15:15:46.895Z,37.46
2018-08-22T15:16:46.850Z,36.78
2018-08-22T15:18:39.681Z,37.35
2018-08-22T15:19:39.665Z,37.86
2018-08-22T15:21:32.555Z,37.48
2018-08-22T15:22:32.509Z,37.27
2018-08-22T15:24:25.297Z,36.80
2018-08-22T15:25:25.335Z,36.78
2018-08-22T15:27:18.124Z,37.65
2018-08-22T15:28:18.099Z,37.96
2018-08-22T15:30:11.560Z,37.38
2018-08-22T15:31:11.438Z,36.98
2018-08-22T15:33:04.247Z,37.35
2018-08-22T15:34:04.325Z,37.35
2018-08-22T15:35:57.554Z,37.84
2018-08-22T15:36:57.509Z,37.65
2018-08-22T15:38:50.877Z,38.78
2018-08-22T15:39:50.859Z,38.49
2018-08-22T15:41:43.722Z,38.51
2018-08-22T15:42:43.640Z,38.02
2018-08-22T15:44:36.479Z,38.70
2018-08-22T15:45:36.463Z,39.19
2018-08-22T15:47:29.812Z,38.80
2018-08-22T15:48:29.776Z,38.90
2018-08-22T15:50:23.090Z,38.12
2018-08-22T15:51:23.083Z,38.51
2018-08-22T15:53:16.509Z,39.09
2018-08-22T15:54:16.363Z,39.49
2018-08-22T15:56:09.194Z,39.66
2018-08-22T15:57:09.172Z,40.14
2018-08-22T15:59:02.535Z,40.16
2018-08-22T16:00:02.480Z,40.35
2018-08-22T16:01:55.844Z,40.68
2018-08-22T16:02:55.781Z,41.00
2018-08-22T16:04:48.618Z,41.07
2018-08-22T16:05:48.595Z,42.15
2018-08-22T16:07:41.935Z,41.49
2018-08-22T16:08:41.894Z,41.36
2018-08-22T16:10:35.215Z,41.86
2018-08-22T16:11:35.186Z,41.96
2018-08-22T16:13:28.519Z,41.86
2018-08-22T16:14:28.532Z,42.25
2018-08-22T16:16:21.840Z,41.36
2018-08-22T16:17:21.786Z,42.25
2018-08-22T16:19:15.129Z,41.46
2018-08-22T16:20:15.101Z,41.36
2018-08-22T16:22:08.416Z,41.56
2018-08-22T16:23:08.416Z,41.46
2018-08-22T16:25:01.727Z,42.30
2018-08-22T16:26:01.707Z,42.79
2018-08-22T16:27:55.018Z,42.79
2018-08-22T16:28:55.014Z,42.69
2018-08-22T16:30:56.858Z,43.28
2018-08-22T16:31:47.795Z,43.48
2018-08-22T16:33:41.177Z,43.48
2018-08-22T16:34:41.101Z,43.38
2018-08-22T16:36:34.422Z,43.28
2018-08-22T16:37:34.413Z,43.08
2018-08-22T16:39:27.741Z,42.21
2018-08-22T16:40:27.711Z,43.46
2018-08-22T16:42:21.583Z,43.38
2018-08-22T16:43:21.525Z,43.07
2018-08-22T16:45:14.357Z,43.55
2018-08-22T16:46:14.303Z,43.85
2018-08-22T16:48:07.124Z,44.04
2018-08-22T16:49:07.104Z,44.43
2018-08-22T16:50:59.932Z,44.78
2018-08-22T16:51:59.919Z,45.07
2018-08-22T16:53:52.738Z,45.36
2018-08-22T16:54:52.709Z,45.46
2018-08-22T16:56:46.048Z,45.46
2018-08-22T16:57:46.013Z,45.75
2018-08-22T16:59:39.327Z,45.65
2018-08-22T17:00:39.306Z,45.36
2018-08-22T17:02:32.642Z,46.14
2018-08-22T17:03:32.604Z,45.75
2018-08-22T17:05:25.437Z,45.65
2018-08-22T17:06:25.422Z,46.04
2018-08-22T17:08:19.316Z,45.85
2018-08-22T17:09:18.697Z,46.04
2018-08-22T17:11:12.062Z,46.22
2018-08-22T17:12:12.027Z,46.51
2018-08-22T17:14:05.326Z,46.31
2018-08-22T17:15:05.301Z,45.95
2018-08-22T17:16:58.135Z,46.24
2018-08-22T17:17:58.102Z,46.04
2018-08-22T17:19:50.924Z,46.12
2018-08-22T17:20:50.893Z,46.80
2018-08-22T17:22:44.232Z,47.07
2018-08-22T17:23:44.188Z,47.46
2018-08-22T17:25:37.039Z,47.75
2018-08-22T17:26:37.002Z,47.56
2018-08-22T17:28:30.309Z,47.07
2018-08-22T17:29:30.455Z,47.15
2018-08-22T17:31:23.613Z,48.02
2018-08-22T17:32:23.585Z,48.22
2018-08-22T17:34:16.409Z,48.12
2018-08-22T17:35:16.382Z,48.02
2018-08-22T17:37:09.719Z,48.51
2018-08-22T17:38:09.679Z,48.12
2018-08-22T17:40:02.504Z,48.02
2018-08-22T17:41:02.479Z,48.32
2018-08-22T17:42:55.844Z,48.39
2018-08-22T17:43:55.774Z,48.00
2018-08-22T17:45:48.625Z,48.29
2018-08-22T17:46:48.583Z,48.10
2018-08-22T17:48:41.439Z,48.00
2018-08-22T17:49:41.365Z,48.19
2018-08-22T17:51:34.233Z,49.27
2018-08-22T17:52:34.194Z,48.78
2018-08-22T17:54:27.030Z,48.75
2018-08-22T17:55:27.037Z,48.75
2018-08-22T17:57:19.849Z,48.56
2018-08-22T17:58:19.829Z,49.05
2018-08-22T18:00:12.635Z,48.85
2018-08-22T18:01:12.600Z,49.24
2018-08-22T18:03:05.449Z,49.54
2018-08-22T18:04:05.415Z,49.80
2018-08-22T18:05:58.746Z,49.80
2018-08-22T18:06:58.719Z,49.99
2018-08-22T18:08:52.071Z,50.38
2018-08-22T18:09:52.025Z,50.78
2018-08-22T18:11:45.365Z,50.56
2018-08-22T18:12:45.308Z,50.36
2018-08-22T18:14:38.145Z,50.95
2018-08-22T18:15:38.122Z,50.56
2018-08-22T18:17:30.956Z,51.23
2018-08-22T18:18:30.910Z,51.23
2018-08-22T18:20:23.728Z,51.31
2018-08-22T18:21:23.697Z,51.31
2018-08-22T18:23:16.575Z,51.31
2018-08-22T18:24:16.504Z,51.31
2018-08-22T18:26:09.335Z,52.19
2018-08-22T18:27:09.297Z,52.37
2018-08-22T18:29:02.122Z,51.99
2018-08-22T18:30:02.086Z,51.79
2018-08-22T18:31:55.415Z,52.47
2018-08-22T18:32:55.397Z,52.09